Spirit Of Norfolk — WDD4552 — position and weather

sailwx.info

Track history (hours):
 
Tides and Currents Weather Stations Pressure Air Temp Water Temp Dewpoint Dewpoint Depression Visibility Wind Speed Wind Dir Waves Ship Positions

Spirit Of Norfolk

Owner: Spirit Cruises LLC, Norfolk, VA. More information available from US FCC via Universal Licensing System and Coast Guard Vessel Documentation Center.

Last reported at 2018-Jan-02 14:25 UTC. Time now 2018-Jan-23 19:36 UTC.
Position N 36°50' W 076°17'.
Warning: this ship's position is 21 days out of date.

Length 52 m; draft 2.1 m.

Type: Passenger vessel. MMSI: 367146190.

Date/timePositionNaut miles runAvg speedWind from/ knotsBaromVisibWave heightAir tempDewpointWater temp
2018-Jan-02 14:25N 36°50' W 076°17'1 1.6
2018-Jan-02 14:00N 36°51' W 076°17'0 0.3
2018-Jan-02 13:30N 36°51' W 076°18'0 0.0
2018-Jan-01 20:00N 36°51' W 076°18'3 6.5
2018-Jan-01 19:30N 36°53' W 076°20'5 8.6
2018-Jan-01 18:58N 36°58' W 076°20'4 9.1
2018-Jan-01 18:30N 36°54' W 076°20'4 7.1
2018-Jan-01 18:00N 36°51' W 076°18'0 0.0
2018-Jan-01 05:24N 36°51' W 076°18'0 1.2
2018-Jan-01 05:00N 36°50' W 076°18'2 2.5
2018-Jan-01 04:00N 36°48' W 076°18'2 4.4
2018-Jan-01 03:30N 36°50' W 076°18'2 3.6
2018-Jan-01 03:00N 36°51' W 076°19'0 0.2
2018-Jan-01 02:30N 36°52' W 076°19'1 2.7
2018-Jan-01 02:00N 36°51' W 076°18'0 0.0
2018-Jan-01 01:27N 36°51' W 076°18'0 0.0
2018-Jan-01 00:30N 36°51' W 076°18'0 0.0
2017-Dec-31 18:56N 36°51' W 076°18'0 0.0
2017-Dec-31 18:30N 36°51' W 076°18'3 6.5
2017-Dec-31 18:00N 36°53' W 076°20'4 8.7
2017-Dec-31 17:30N 36°58' W 076°20'4 9.1
2017-Dec-31 17:00N 36°53' W 076°20'3 6.4
2017-Dec-31 16:30N 36°51' W 076°18'0 0.0
2017-Dec-31 15:59N 36°51' W 076°18'0 0.0
2017-Dec-31 15:29N 36°51' W 076°18'0 0.0
2017-Dec-31 03:32N 36°51' W 076°18'0 0.0
2017-Dec-31 03:29N 36°51' W 076°18'0 0.0
2017-Dec-31 03:00N 36°51' W 076°18'3 5.8
2017-Dec-31 02:30N 36°53' W 076°20'3 6.6
2017-Dec-31 02:00N 36°56' W 076°20'1 2.7
2017-Dec-31 01:30N 36°57' W 076°20'3 6.2
2017-Dec-31 01:00N 36°54' W 076°20'3 5.9
2017-Dec-31 00:30N 36°52' W 076°19'1 2.7
2017-Dec-31 00:00N 36°51' W 076°18'0 0.0
2017-Dec-30 23:29N 36°51' W 076°18'0 0.0
2017-Dec-30 22:59N 36°51' W 076°18'0 0.0
2017-Dec-30 22:23N 36°51' W 076°18'0 0.0
2017-Dec-30 19:08N 36°51' W 076°18'0 0.8
2017-Dec-30 19:00N 36°51' W 076°18'5 9.1
2017-Dec-30 18:30N 36°55' W 076°20'2 4.1
2017-Dec-30 17:56N 36°57' W 076°20'3 8.1
2017-Dec-30 17:30N 36°54' W 076°20'4 7.1
2017-Dec-30 17:00N 36°51' W 076°18'0 0.0
2017-Dec-30 16:12N 36°51' W 076°18'0 0.0
2017-Dec-30 15:48N 36°51' W 076°18'0 0.0
2017-Dec-30 15:30N 36°51' W 076°18'0 0.0
2017-Dec-30 03:58N 36°51' W 076°18'0 0.0
2017-Dec-30 03:26N 36°51' W 076°18'0 0.4
2017-Dec-30 03:00N 36°51' W 076°17'1 1.7
2017-Dec-30 02:30N 36°51' W 076°18'3 6.9
2017-Dec-30 02:00N 36°54' W 076°20'4 8.3
2017-Dec-30 01:30N 36°51' W 076°17'0 0.1
2017-Dec-30 01:00N 36°51' W 076°17'0 0.0
2017-Dec-30 00:30N 36°51' W 076°17'0 0.0
2017-Dec-30 00:00N 36°51' W 076°17'0 0.0
2017-Dec-29 23:30N 36°51' W 076°17'0 0.0
2017-Dec-29 23:00N 36°51' W 076°17'0 0.3
2017-Dec-29 22:30N 36°51' W 076°18'0 0.0
2017-Dec-29 21:52N 36°51' W 076°18'0 0.0
2017-Dec-29 21:28N 36°51' W 076°18'0 0.0
2017-Dec-28 02:07N 36°51' W 076°18'0 0.9
2017-Dec-28 02:00N 36°51' W 076°18'4 7.2
2017-Dec-28 01:30N 36°54' W 076°20'4 7.4
2017-Dec-28 01:00N 36°57' W 076°20'4 8.6
2017-Dec-28 00:30N 36°53' W 076°20'3 6.3
2017-Dec-28 00:00N 36°51' W 076°18'0 0.0
2017-Dec-27 23:29N 36°51' W 076°18'0 0.0
2017-Dec-27 22:59N 36°51' W 076°18'0 0.0
2017-Dec-27 22:29N 36°51' W 076°18'  
2017-Dec-24 02:56N 36°51' W 076°18'1 1.7
2017-Dec-24 02:30N 36°51' W 076°18'2 4.1
2017-Dec-24 02:00N 36°53' W 076°20'3 5.7
2017-Dec-24 01:30N 36°56' W 076°20'1 2.3
2017-Dec-24 01:00N 36°57' W 076°20'4 7.6
2017-Dec-24 00:30N 36°53' W 076°20'3 5.9
2017-Dec-24 00:00N 36°51' W 076°18'0 0.0
2017-Dec-23 23:29N 36°51' W 076°18'0 0.0
2017-Dec-23 22:59N 36°51' W 076°18'0 0.0
2017-Dec-23 22:26N 36°51' W 076°18'0 0.0
2017-Dec-23 21:59N 36°51' W 076°18'0 0.0
2017-Dec-23 21:29N 36°51' W 076°18'  
Track history (hours):
 
Tides and Currents Weather Stations Pressure Air Temp Water Temp Dewpoint Dewpoint Depression Visibility Wind Speed Wind Dir Waves Ship Positions

Spirit Of Norfolk

Owner: Spirit Cruises LLC, Norfolk, VA. More information available from US FCC via Universal Licensing System and Coast Guard Vessel Documentation Center.

Last reported at 2018-Jan-02 14:25 UTC. Time now 2018-Jan-23 19:36 UTC.
Position N 36°50' W 076°17'.
Warning: this ship's position is 21 days out of date.

Length 52 m; draft 2.1 m.

Type: Passenger vessel. MMSI: 367146190.

Date/timePositionNaut miles runAvg speedWind from/ knotsBaromVisibWave heightAir tempDewpointWater temp
2018-Jan-02 14:25N 36°50' W 076°17'1 1.6
2018-Jan-02 14:00N 36°51' W 076°17'0 0.3
2018-Jan-02 13:30N 36°51' W 076°18'0 0.0
2018-Jan-01 20:00N 36°51' W 076°18'3 6.5
2018-Jan-01 19:30N 36°53' W 076°20'5 8.6
2018-Jan-01 18:58N 36°58' W 076°20'4 9.1
2018-Jan-01 18:30N 36°54' W 076°20'4 7.1
2018-Jan-01 18:00N 36°51' W 076°18'0 0.0
2018-Jan-01 05:24N 36°51' W 076°18'0 1.2
2018-Jan-01 05:00N 36°50' W 076°18'2 2.5
2018-Jan-01 04:00N 36°48' W 076°18'2 4.4
2018-Jan-01 03:30N 36°50' W 076°18'2 3.6
2018-Jan-01 03:00N 36°51' W 076°19'0 0.2
2018-Jan-01 02:30N 36°52' W 076°19'1 2.7
2018-Jan-01 02:00N 36°51' W 076°18'0 0.0
2018-Jan-01 01:27N 36°51' W 076°18'0 0.0
2018-Jan-01 00:30N 36°51' W 076°18'0 0.0
2017-Dec-31 18:56N 36°51' W 076°18'0 0.0
2017-Dec-31 18:30N 36°51' W 076°18'3 6.5
2017-Dec-31 18:00N 36°53' W 076°20'4 8.7
2017-Dec-31 17:30N 36°58' W 076°20'4 9.1
2017-Dec-31 17:00N 36°53' W 076°20'3 6.4
2017-Dec-31 16:30N 36°51' W 076°18'0 0.0
2017-Dec-31 15:59N 36°51' W 076°18'0 0.0
2017-Dec-31 15:29N 36°51' W 076°18'0 0.0
2017-Dec-31 03:32N 36°51' W 076°18'0 0.0
2017-Dec-31 03:29N 36°51' W 076°18'0 0.0
2017-Dec-31 03:00N 36°51' W 076°18'3 5.8
2017-Dec-31 02:30N 36°53' W 076°20'3 6.6
2017-Dec-31 02:00N 36°56' W 076°20'1 2.7
2017-Dec-31 01:30N 36°57' W 076°20'3 6.2
2017-Dec-31 01:00N 36°54' W 076°20'3 5.9
2017-Dec-31 00:30N 36°52' W 076°19'1 2.7
2017-Dec-31 00:00N 36°51' W 076°18'0 0.0
2017-Dec-30 23:29N 36°51' W 076°18'0 0.0
2017-Dec-30 22:59N 36°51' W 076°18'0 0.0
2017-Dec-30 22:23N 36°51' W 076°18'0 0.0
2017-Dec-30 19:08N 36°51' W 076°18'0 0.8
2017-Dec-30 19:00N 36°51' W 076°18'5 9.1
2017-Dec-30 18:30N 36°55' W 076°20'2 4.1
2017-Dec-30 17:56N 36°57' W 076°20'3 8.1
2017-Dec-30 17:30N 36°54' W 076°20'4 7.1
2017-Dec-30 17:00N 36°51' W 076°18'0 0.0
2017-Dec-30 16:12N 36°51' W 076°18'0 0.0
2017-Dec-30 15:48N 36°51' W 076°18'0 0.0
2017-Dec-30 15:30N 36°51' W 076°18'0 0.0
2017-Dec-30 03:58N 36°51' W 076°18'0 0.0
2017-Dec-30 03:26N 36°51' W 076°18'0 0.4
2017-Dec-30 03:00N 36°51' W 076°17'1 1.7
2017-Dec-30 02:30N 36°51' W 076°18'3 6.9
2017-Dec-30 02:00N 36°54' W 076°20'4 8.3
2017-Dec-30 01:30N 36°51' W 076°17'0 0.1
2017-Dec-30 01:00N 36°51' W 076°17'0 0.0
2017-Dec-30 00:30N 36°51' W 076°17'0 0.0
2017-Dec-30 00:00N 36°51' W 076°17'0 0.0
2017-Dec-29 23:30N 36°51' W 076°17'0 0.0
2017-Dec-29 23:00N 36°51' W 076°17'0 0.3
2017-Dec-29 22:30N 36°51' W 076°18'0 0.0
2017-Dec-29 21:52N 36°51' W 076°18'0 0.0
2017-Dec-29 21:28N 36°51' W 076°18'0 0.0
2017-Dec-28 02:07N 36°51' W 076°18'0 0.9
2017-Dec-28 02:00N 36°51' W 076°18'4 7.2
2017-Dec-28 01:30N 36°54' W 076°20'4 7.4
2017-Dec-28 01:00N 36°57' W 076°20'4 8.6
2017-Dec-28 00:30N 36°53' W 076°20'3 6.3
2017-Dec-28 00:00N 36°51' W 076°18'0 0.0
2017-Dec-27 23:29N 36°51' W 076°18'0 0.0
2017-Dec-27 22:59N 36°51' W 076°18'0 0.0
2017-Dec-27 22:29N 36°51' W 076°18'  
2017-Dec-24 02:56N 36°51' W 076°18'1 1.7
2017-Dec-24 02:30N 36°51' W 076°18'2 4.1
2017-Dec-24 02:00N 36°53' W 076°20'3 5.7
2017-Dec-24 01:30N 36°56' W 076°20'1 2.3
2017-Dec-24 01:00N 36°57' W 076°20'4 7.6
2017-Dec-24 00:30N 36°53' W 076°20'3 5.9
2017-Dec-24 00:00N 36°51' W 076°18'0 0.0
2017-Dec-23 23:29N 36°51' W 076°18'0 0.0
2017-Dec-23 22:59N 36°51' W 076°18'0 0.0
2017-Dec-23 22:26N 36°51' W 076°18'0 0.0
2017-Dec-23 21:59N 36°51' W 076°18'0 0.0
2017-Dec-23 21:29N 36°51' W 076°18'  

Dump ship's entire track history